Time;durP1;ratioP1;P1;durP2;ratioP2;P2;SDS_P1;SDS_P2;PMS_P1;PMS_P2;Temp;Humidity;BMP_temperature;BMP_pressure;BME280_temperature;BME280_humidity;BME280_pressure;Samples;Min_cycle;Max_cycle;Signal;HPM_P1;HPM_P2
2022/09/12 00:01:08;;;;;;;3.47;3.13;;;23.80;1.00;;;;;;5021203;28;20115;-62
2022/09/12 00:03:34;;;;;;;5.78;2.97;;;23.80;1.00;;;;;;5028286;28;20025;-62
2022/09/12 00:06:00;;;;;;;3.65;2.90;;;23.70;1.00;;;;;;5028953;28;20018;-62
2022/09/12 00:08:25;;;;;;;4.68;3.22;;;23.70;1.00;;;;;;5027773;28;20151;-63
2022/09/12 00:10:51;;;;;;;4.13;2.78;;;23.70;1.00;;;;;;5031092;28;20025;-62
2022/09/12 00:13:17;;;;;;;4.53;2.80;;;23.70;1.00;;;;;;5030516;28;20049;-63
2022/09/12 00:15:44;;;;;;;4.82;3.30;;;23.60;1.00;;;;;;5029616;28;20379;-62
2022/09/12 00:18:16;;;;;;;3.47;3.13;;;23.70;1.00;;;;;;5029860;28;20080;-62
2022/09/12 00:20:45;;;;;;;4.43;3.05;;;23.70;1.00;;;;;;5029443;28;20022;-62
2022/09/12 00:23:12;;;;;;;3.30;2.90;;;23.70;1.00;;;;;;5029099;28;20033;-63
2022/09/12 00:25:45;;;;;;;3.78;3.05;;;23.60;1.00;;;;;;5030729;28;20022;-62
2022/09/12 00:28:12;;;;;;;4.85;2.80;;;23.60;1.00;;;;;;5028856;28;20045;-62
2022/09/12 00:30:42;;;;;;;3.97;2.70;;;23.70;1.00;;;;;;5029364;28;20030;-62
2022/09/12 00:33:08;;;;;;;5.47;3.35;;;23.60;1.00;;;;;;5031911;28;20111;-62
2022/09/12 00:35:39;;;;;;;4.55;3.00;;;23.50;1.00;;;;;;5030845;28;20022;-62
2022/09/12 00:38:04;;;;;;;5.63;2.50;;;23.50;1.00;;;;;;5030027;28;20543;-62
2022/09/12 00:40:30;;;;;;;4.88;3.22;;;23.50;1.00;;;;;;5030814;28;20116;-62
2022/09/12 00:42:56;;;;;;;2.67;2.47;;;23.50;1.00;;;;;;5033054;28;20169;-63
2022/09/12 00:45:27;;;;;;;2.90;2.70;;;23.60;1.00;;;;;;5030781;28;20056;-63
2022/09/12 00:47:56;;;;;;;6.63;3.22;;;23.60;1.00;;;;;;5029925;28;20123;-62
2022/09/12 00:50:22;;;;;;;3.65;3.28;;;23.60;1.00;;;;;;5030393;28;20026;-62
2022/09/12 00:53:07;;;;;;;4.43;2.85;;;23.60;1.00;;;;;;5029523;28;20455;-62
2022/09/12 00:55:42;;;;;;;5.18;2.45;;;23.50;1.00;;;;;;5017360;28;20009;-62
2022/09/12 00:58:22;;;;;;;2.42;1.98;;;23.60;1.00;;;;;;5036237;28;20029;-62
2022/09/12 01:00:48;;;;;;;4.03;2.20;;;23.60;1.00;;;;;;5017008;28;20133;-62
2022/09/12 01:03:16;;;;;;;7.82;2.92;;;23.50;1.00;;;;;;5029309;28;20061;-63
2022/09/12 01:05:52;;;;;;;3.03;2.38;;;23.50;1.00;;;;;;5030307;28;20071;-62
2022/09/12 01:08:28;;;;;;;2.95;2.65;;;23.50;1.00;;;;;;5029999;28;20171;-62
2022/09/12 01:10:55;;;;;;;6.68;2.80;;;23.40;1.00;;;;;;5025779;28;20031;-62
2022/09/12 01:13:21;;;;;;;2.70;2.13;;;23.40;1.00;;;;;;4977891;28;1501169;-62
2022/09/12 01:15:47;;;;;;;2.22;2.03;;;23.40;1.00;;;;;;5029135;28;20164;-62
2022/09/12 01:18:29;;;;;;;3.45;2.00;;;23.50;1.00;;;;;;5031587;28;20193;-63
2022/09/12 01:21:03;;;;;;;2.63;2.08;;;23.40;1.00;;;;;;5035385;28;20034;-62
2022/09/12 01:23:47;;;;;;;4.00;2.10;;;23.40;1.00;;;;;;5037061;28;20028;-62
2022/09/12 01:26:52;;;;;;;3.08;1.95;;;23.40;1.00;;;;;;5025399;28;20044;-62
2022/09/12 01:29:54;;;;;;;1.88;1.70;;;23.40;1.00;;;;;;5033652;28;20044;-62
2022/09/12 01:32:19;;;;;;;5.95;2.85;;;23.30;1.00;;;;;;5034153;28;20037;-62
2022/09/12 01:35:16;;;;;;;4.72;3.00;;;23.30;1.00;;;;;;5033498;28;20032;-63
2022/09/12 01:38:00;;;;;;;5.90;2.22;;;23.30;1.00;;;;;;5034301;28;20030;-62
2022/09/12 01:40:37;;;;;;;4.57;2.53;;;23.30;1.00;;;;;;5024771;28;20052;-62
2022/09/12 01:43:25;;;;;;;3.03;2.05;;;23.20;1.00;;;;;;5040808;28;20024;-62
2022/09/12 01:46:17;;;;;;;3.03;2.33;;;23.20;1.00;;;;;;5033216;28;20449;-62
2022/09/12 01:49:13;;;;;;;4.40;2.55;;;23.30;1.00;;;;;;5030929;28;20474;-63
2022/09/12 01:51:44;;;;;;;2.60;2.03;;;23.30;1.00;;;;;;5032895;28;20546;-62
2022/09/12 01:54:19;;;;;;;2.47;2.28;;;23.20;1.00;;;;;;5041108;28;20044;-63
2022/09/12 01:56:48;;;;;;;3.17;1.98;;;23.20;1.00;;;;;;5033389;28;20414;-63
2022/09/12 01:59:32;;;;;;;3.70;2.28;;;23.20;1.00;;;;;;5046636;28;20041;-62
2022/09/12 02:02:22;;;;;;;3.25;1.83;;;23.20;1.00;;;;;;5034736;28;20021;-62
2022/09/12 02:04:57;;;;;;;3.42;1.85;;;23.20;1.00;;;;;;5032656;28;20022;-62
2022/09/12 02:07:35;;;;;;;3.35;2.45;;;23.10;1.00;;;;;;5034312;28;20367;-62
2022/09/12 02:10:18;;;;;;;4.30;2.05;;;23.10;1.00;;;;;;5038952;28;20014;-62
2022/09/12 02:12:53;;;;;;;2.15;1.92;;;23.20;1.00;;;;;;5033531;28;20483;-62
2022/09/12 02:15:29;;;;;;;3.38;1.98;;;23.10;1.00;;;;;;5031777;28;20041;-62
2022/09/12 02:17:56;;;;;;;2.35;2.05;;;23.10;1.00;;;;;;5032826;28;20450;-63
2022/09/12 02:20:29;;;;;;;2.25;1.70;;;23.20;1.00;;;;;;5029416;28;20079;-62
2022/09/12 02:22:56;;;;;;;4.07;1.95;;;23.10;1.00;;;;;;5033550;28;20021;-63
2022/09/12 02:25:24;;;;;;;2.75;1.75;;;23.10;1.00;;;;;;5042400;28;20032;-62
2022/09/12 02:28:00;;;;;;;4.78;2.10;;;23.10;1.00;;;;;;5033458;28;20099;-62
2022/09/12 02:30:30;;;;;;;3.30;2.42;;;23.10;1.00;;;;;;5035327;28;20040;-62
2022/09/12 02:33:22;;;;;;;2.95;2.28;;;23.10;1.00;;;;;;5031809;28;20029;-62
2022/09/12 02:36:14;;;;;;;2.83;2.15;;;23.00;1.00;;;;;;5032961;28;20033;-62
2022/09/12 02:38:43;;;;;;;2.67;2.08;;;23.10;1.00;;;;;;5029616;28;20155;-62
2022/09/12 02:41:09;;;;;;;2.22;2.00;;;23.00;1.00;;;;;;5034657;28;20060;-62
2022/09/12 02:43:36;;;;;;;4.93;1.83;;;23.10;1.00;;;;;;5037752;28;20020;-62
2022/09/12 02:46:05;;;;;;;5.45;2.25;;;23.00;1.00;;;;;;5033158;28;20053;-62
2022/09/12 02:48:35;;;;;;;4.30;1.95;;;23.00;1.00;;;;;;5030732;28;20029;-61
2022/09/12 02:51:01;;;;;;;2.80;1.75;;;23.00;1.00;;;;;;5033097;28;20049;-61
2022/09/12 02:53:27;;;;;;;4.00;2.40;;;23.00;1.00;;;;;;5032243;28;20096;-61
2022/09/12 02:55:53;;;;;;;2.40;1.75;;;23.00;1.00;;;;;;5029528;28;20022;-61
2022/09/12 02:58:25;;;;;;;5.20;2.10;;;22.90;1.00;;;;;;5024373;28;20028;-61
2022/09/12 03:01:05;;;;;;;3.35;2.00;;;22.90;1.00;;;;;;5032115;28;20033;-61
2022/09/12 03:04:15;;;;;;;3.83;1.83;;;22.90;1.00;;;;;;5030335;28;20187;-61
2022/09/12 03:06:50;;;;;;;2.22;1.92;;;22.90;1.00;;;;;;5032102;28;20068;-62
2022/09/12 03:09:46;;;;;;;4.13;1.98;;;22.90;1.00;;;;;;5031659;28;20061;-62
2022/09/12 03:12:28;;;;;;;3.65;1.95;;;22.80;1.00;;;;;;5032719;28;20029;-62
2022/09/12 03:15:13;;;;;;;3.00;1.92;;;22.90;1.00;;;;;;5025665;28;20483;-62
2022/09/12 03:18:05;;;;;;;3.20;1.80;;;22.80;1.00;;;;;;5032362;28;20034;-62
2022/09/12 03:20:44;;;;;;;6.97;2.10;;;22.80;1.00;;;;;;5031624;28;20481;-62
2022/09/12 03:23:21;;;;;;;2.25;1.88;;;22.90;1.00;;;;;;5032316;28;20108;-62
2022/09/12 03:26:08;;;;;;;6.63;2.38;;;22.80;1.00;;;;;;5038570;28;20033;-61
2022/09/12 03:35:20;;;;;;;4.90;1.77;;;22.70;1.00;;;;;;5028681;28;20078;-62
2022/09/12 03:37:47;;;;;;;3.40;1.98;;;22.70;1.00;;;;;;5027167;28;20476;-62
2022/09/12 03:40:14;;;;;;;2.30;1.92;;;22.70;1.00;;;;;;5035829;28;20440;-62
2022/09/12 03:42:40;;;;;;;4.38;1.98;;;22.70;1.00;;;;;;5029578;28;20038;-62
2022/09/12 03:45:07;;;;;;;3.47;1.73;;;22.70;1.00;;;;;;5029723;28;20026;-62
2022/09/12 03:47:32;;;;;;;4.00;2.28;;;22.70;1.00;;;;;;5030048;28;20075;-62
2022/09/12 03:49:58;;;;;;;3.42;1.85;;;22.70;1.00;;;;;;5031163;28;20056;-62
2022/09/12 03:52:24;;;;;;;5.63;2.17;;;22.70;1.00;;;;;;5031847;28;20108;-62
2022/09/12 03:54:50;;;;;;;3.50;1.98;;;22.70;1.00;;;;;;5030446;28;20029;-62
2022/09/12 03:57:15;;;;;;;3.25;1.88;;;22.70;1.00;;;;;;5032677;28;20533;-62
2022/09/12 03:59:41;;;;;;;3.63;2.17;;;22.70;1.00;;;;;;5032340;28;20510;-62
2022/09/12 04:02:08;;;;;;;1.75;1.60;;;22.70;1.00;;;;;;5046824;28;20075;-62
2022/09/12 04:04:34;;;;;;;4.68;2.30;;;22.70;1.00;;;;;;5032812;28;20037;-62
2022/09/12 04:06:59;;;;;;;5.72;2.03;;;22.70;1.00;;;;;;5031629;28;20014;-62
2022/09/12 04:09:25;;;;;;;3.55;1.90;;;22.70;1.00;;;;;;5033659;28;20057;-61
2022/09/12 04:11:51;;;;;;;2.80;2.25;;;22.70;1.00;;;;;;5030159;28;20041;-62
2022/09/12 04:14:16;;;;;;;3.20;1.80;;;22.60;1.00;;;;;;5034277;28;20511;-62
2022/09/12 04:16:42;;;;;;;4.35;1.90;;;22.60;1.00;;;;;;5031676;28;20080;-61
2022/09/12 04:19:10;;;;;;;3.90;2.20;;;22.60;1.00;;;;;;5030982;28;20046;-62
2022/09/12 04:21:36;;;;;;;3.00;1.90;;;22.60;1.00;;;;;;5034318;28;20550;-61
2022/09/12 04:24:01;;;;;;;3.65;2.10;;;22.60;1.00;;;;;;5028702;28;20133;-61
2022/09/12 04:26:28;;;;;;;4.03;1.77;;;22.60;1.00;;;;;;5030126;28;20026;-61
2022/09/12 04:28:56;;;;;;;3.47;2.13;;;22.60;1.00;;;;;;5042874;28;20528;-61
2022/09/12 04:31:22;;;;;;;6.25;2.42;;;22.50;1.00;;;;;;5042395;28;20019;-61
2022/09/12 04:33:58;;;;;;;3.83;1.77;;;22.60;1.00;;;;;;5030829;28;20025;-62
2022/09/12 04:36:25;;;;;;;4.93;1.90;;;22.50;1.00;;;;;;5031358;28;20036;-61
2022/09/12 04:38:59;;;;;;;3.88;2.50;;;22.50;1.00;;;;;;5030617;28;20486;-61
2022/09/12 04:41:33;;;;;;;3.47;2.33;;;22.50;1.00;;;;;;5031483;28;20018;-62
2022/09/12 04:44:02;;;;;;;4.82;1.70;;;22.50;1.00;;;;;;5031222;28;20030;-62
2022/09/12 04:46:30;;;;;;;4.50;2.28;;;22.50;1.00;;;;;;5031341;28;20025;-62
2022/09/12 04:48:56;;;;;;;3.45;2.10;;;22.50;1.00;;;;;;5035902;28;20137;-62
2022/09/12 04:51:26;;;;;;;4.40;1.70;;;22.50;1.00;;;;;;5031251;28;20052;-62
2022/09/12 04:53:57;;;;;;;5.95;1.92;;;22.40;1.00;;;;;;5034277;28;20018;-63
2022/09/12 04:56:23;;;;;;;4.07;2.25;;;22.50;1.00;;;;;;5033775;28;20128;-62
2022/09/12 04:58:49;;;;;;;3.92;1.95;;;22.50;1.00;;;;;;5034391;28;20386;-62
2022/09/12 05:01:18;;;;;;;4.40;2.35;;;22.40;1.00;;;;;;5036092;28;20021;-62
2022/09/12 05:03:45;;;;;;;5.90;1.85;;;22.50;1.00;;;;;;5032937;28;20108;-62
2022/09/12 05:06:13;;;;;;;3.40;2.33;;;22.40;1.00;;;;;;5034915;28;20382;-61
2022/09/12 05:08:38;;;;;;;5.45;2.17;;;22.50;1.00;;;;;;5033928;28;20021;-64
2022/09/12 05:11:06;;;;;;;6.22;2.30;;;22.40;1.00;;;;;;5035092;28;20026;-63
2022/09/12 05:13:33;;;;;;;2.92;2.20;;;22.40;1.00;;;;;;5040234;28;20045;-62
2022/09/12 05:16:00;;;;;;;5.00;2.53;;;22.50;1.00;;;;;;5034843;28;20042;-62
2022/09/12 05:18:27;;;;;;;5.93;2.67;;;22.40;1.00;;;;;;5033734;28;20109;-62
2022/09/12 05:20:54;;;;;;;5.60;3.03;;;22.50;1.00;;;;;;5034608;28;20029;-62
2022/09/12 05:23:20;;;;;;;4.38;2.38;;;22.40;1.00;;;;;;5039912;28;20331;-62
2022/09/12 05:25:53;;;;;;;5.28;2.00;;;22.40;1.00;;;;;;5036550;28;20025;-62
2022/09/12 05:28:20;;;;;;;4.28;2.35;;;22.40;1.00;;;;;;5034246;28;20056;-62
2022/09/12 05:30:46;;;;;;;5.82;2.63;;;22.50;1.00;;;;;;5037410;28;20018;-63
2022/09/12 05:33:12;;;;;;;6.95;2.33;;;22.40;1.00;;;;;;5034945;28;20142;-62
2022/09/12 05:35:39;;;;;;;4.20;2.58;;;22.40;1.00;;;;;;5033355;28;20022;-62
2022/09/12 05:38:05;;;;;;;8.20;2.30;;;22.40;1.00;;;;;;5036990;28;20426;-62
2022/09/12 05:40:31;;;;;;;5.07;2.67;;;22.40;1.00;;;;;;5046584;28;20045;-62
2022/09/12 05:42:57;;;;;;;6.30;2.17;;;22.40;1.00;;;;;;5034193;28;20159;-62
2022/09/12 05:45:22;;;;;;;5.15;2.97;;;22.40;1.00;;;;;;5034269;28;20087;-62
2022/09/12 05:47:48;;;;;;;4.68;2.80;;;22.30;1.00;;;;;;5034014;28;20036;-61
2022/09/12 05:50:14;;;;;;;7.25;2.38;;;22.40;1.00;;;;;;5044134;28;20049;-62
2022/09/12 05:52:39;;;;;;;6.15;3.10;;;22.40;1.00;;;;;;5033309;28;20339;-63
2022/09/12 05:55:06;;;;;;;6.32;2.33;;;22.40;1.00;;;;;;5036067;28;20113;-63
2022/09/12 05:57:32;;;;;;;5.45;2.28;;;22.40;1.00;;;;;;5034088;28;20025;-62
2022/09/12 05:59:58;;;;;;;8.02;2.90;;;22.40;1.00;;;;;;5035802;28;20085;-62
2022/09/12 06:02:24;;;;;;;5.18;2.35;;;22.40;1.00;;;;;;5034009;28;20021;-63
2022/09/12 06:04:50;;;;;;;3.10;2.40;;;22.40;1.00;;;;;;5036086;28;20083;-62
2022/09/12 06:07:15;;;;;;;7.63;2.50;;;22.50;1.00;;;;;;5033727;28;20018;-62
2022/09/12 06:09:41;;;;;;;5.15;2.65;;;22.40;1.00;;;;;;5033032;28;20025;-62
2022/09/12 06:12:07;;;;;;;5.03;2.60;;;22.50;1.00;;;;;;5033671;28;20043;-62
2022/09/12 06:14:38;;;;;;;6.07;2.22;;;22.50;1.00;;;;;;5036804;28;20049;-62
2022/09/12 06:17:04;;;;;;;7.45;2.75;;;22.50;1.00;;;;;;5033719;28;20053;-62
2022/09/12 06:19:30;;;;;;;7.82;3.42;;;22.50;1.00;;;;;;5037789;28;20072;-63
2022/09/12 06:21:55;;;;;;;5.45;3.35;;;22.50;1.00;;;;;;5033729;28;20040;-63
2022/09/12 06:24:21;;;;;;;5.28;3.40;;;22.60;1.00;;;;;;5036811;28;20026;-63
2022/09/12 06:26:48;;;;;;;7.00;3.03;;;22.60;1.00;;;;;;5033556;28;20029;-63
2022/09/12 06:29:14;;;;;;;7.05;2.42;;;22.60;1.00;;;;;;5035623;28;20025;-62
2022/09/12 06:31:41;;;;;;;10.48;2.67;;;22.70;1.00;;;;;;5032087;28;20018;-62
2022/09/12 06:34:12;;;;;;;4.05;2.03;;;22.70;1.00;;;;;;5038875;28;20041;-62
2022/09/12 06:36:43;;;;;;;3.05;2.13;;;22.70;1.00;;;;;;5033534;28;20117;-62
2022/09/12 06:39:17;;;;;;;6.10;2.53;;;22.70;1.00;;;;;;5039306;28;20107;-62
2022/09/12 06:41:44;;;;;;;5.25;2.80;;;22.70;1.00;;;;;;5032084;28;20044;-62
2022/09/12 06:44:15;;;;;;;4.40;2.53;;;22.70;1.00;;;;;;5032168;28;20040;-62
2022/09/12 06:46:41;;;;;;;4.45;2.38;;;22.70;1.00;;;;;;5032063;28;20430;-62
2022/09/12 06:49:10;;;;;;;6.90;2.33;;;22.70;1.00;;;;;;5029721;28;20037;-62
2022/09/12 06:51:36;;;;;;;3.50;2.08;;;22.80;1.00;;;;;;5035853;28;20025;-62
2022/09/12 06:54:03;;;;;;;7.20;2.20;;;22.80;1.00;;;;;;5029742;28;20029;-62
2022/09/12 06:56:28;;;;;;;5.32;1.70;;;22.80;1.00;;;;;;5037896;28;20033;-61
2022/09/12 06:58:58;;;;;;;8.75;2.22;;;22.80;1.00;;;;;;5034908;28;20037;-61
2022/09/12 07:01:26;;;;;;;6.55;2.28;;;22.70;1.00;;;;;;5039573;28;20537;-63
2022/09/12 07:03:54;;;;;;;5.20;1.77;;;22.80;1.00;;;;;;5034308;28;20033;-62
2022/09/12 07:06:23;;;;;;;2.97;1.92;;;22.80;1.00;;;;;;5041317;28;20021;-62
2022/09/12 07:08:48;;;;;;;4.95;2.58;;;22.90;1.00;;;;;;5052162;28;20091;-61
2022/09/12 07:11:21;;;;;;;3.80;2.17;;;22.80;1.00;;;;;;5032489;28;20026;-62
2022/09/12 07:13:52;;;;;;;4.75;1.90;;;22.90;1.00;;;;;;5033537;28;20572;-62
2022/09/12 07:16:18;;;;;;;2.80;1.60;;;22.90;1.00;;;;;;5033868;28;20040;-61
2022/09/12 07:18:45;;;;;;;3.50;1.80;;;22.90;1.00;;;;;;5033569;28;20034;-63
2022/09/12 07:21:17;;;;;;;2.70;1.95;;;22.90;1.00;;;;;;5032370;28;20048;-63
2022/09/12 07:23:44;;;;;;;3.30;1.90;;;23.00;1.00;;;;;;5031559;28;20080;-62
2022/09/12 07:26:12;;;;;;;4.20;1.80;;;22.90;1.00;;;;;;5032374;28;20386;-62
2022/09/12 07:28:38;;;;;;;4.53;2.13;;;23.00;1.00;;;;;;5035223;28;20532;-63
2022/09/12 07:31:15;;;;;;;3.85;2.20;;;23.00;1.00;;;;;;5031400;28;20129;-62
2022/09/12 07:33:41;;;;;;;4.13;2.00;;;23.00;1.00;;;;;;5029923;28;20488;-62
2022/09/12 07:36:12;;;;;;;3.13;1.80;;;23.00;1.00;;;;;;5029585;28;20116;-63
2022/09/12 07:38:38;;;;;;;2.35;2.08;;;23.00;1.00;;;;;;5036204;28;20120;-62
2022/09/12 07:41:12;;;;;;;4.28;2.03;;;23.00;1.00;;;;;;5041446;28;20119;-62
2022/09/12 07:43:39;;;;;;;3.78;1.90;;;23.00;1.00;;;;;;5031292;28;20034;-62
2022/09/12 07:46:05;;;;;;;4.25;2.72;;;23.10;1.00;;;;;;5030752;28;20391;-62
2022/09/12 07:48:31;;;;;;;2.53;1.80;;;23.00;1.00;;;;;;5031133;28;20021;-62
2022/09/12 07:50:58;;;;;;;3.05;2.20;;;23.00;1.00;;;;;;5029457;28;20026;-62
2022/09/12 07:53:25;;;;;;;3.42;1.70;;;23.00;1.00;;;;;;5048371;28;20364;-62
2022/09/12 07:55:56;;;;;;;5.05;2.15;;;23.10;1.00;;;;;;5031984;28;20111;-62
2022/09/12 07:58:23;;;;;;;4.57;2.20;;;23.00;1.00;;;;;;5042414;28;20024;-62
2022/09/12 08:01:09;;;;;;;6.45;2.58;;;23.10;1.00;;;;;;5032066;28;20032;-62
2022/09/12 08:03:35;;;;;;;6.63;2.38;;;23.10;1.00;;;;;;5043209;28;20088;-62
2022/09/12 08:06:06;;;;;;;4.55;2.35;;;23.20;1.00;;;;;;5030469;28;20534;-62
2022/09/12 08:08:33;;;;;;;5.68;2.15;;;23.20;1.00;;;;;;5035308;28;20492;-62
2022/09/12 08:11:00;;;;;;;5.35;2.22;;;23.20;1.00;;;;;;5038665;28;20099;-62
2022/09/12 08:13:29;;;;;;;5.90;2.63;;;23.20;1.00;;;;;;5031823;28;20398;-62
2022/09/12 08:16:06;;;;;;;4.47;2.53;;;23.20;1.00;;;;;;5031881;28;20084;-62
2022/09/12 08:18:35;;;;;;;3.38;2.03;;;23.20;1.00;;;;;;5034605;28;20052;-62
2022/09/12 08:21:06;;;;;;;5.22;2.10;;;23.30;1.00;;;;;;5034194;28;20031;-62
2022/09/12 08:23:32;;;;;;;5.55;1.85;;;23.30;1.00;;;;;;5037532;28;20022;-62
2022/09/12 08:26:01;;;;;;;5.25;2.20;;;23.30;1.00;;;;;;5019923;28;20116;-62
2022/09/12 08:28:27;;;;;;;8.38;2.50;;;23.40;1.00;;;;;;5038275;28;20029;-62
2022/09/12 08:30:53;;;;;;;4.35;2.40;;;23.40;1.00;;;;;;5036227;28;20880;-63
2022/09/12 08:33:19;;;;;;;5.45;2.53;;;23.40;1.00;;;;;;5049785;28;20104;-62
2022/09/12 08:35:46;;;;;;;4.72;1.88;;;23.40;1.00;;;;;;5045970;28;20029;-62
2022/09/12 08:38:11;;;;;;;4.60;2.42;;;23.50;1.00;;;;;;5046720;28;20495;-62
2022/09/12 08:40:54;;;;;;;7.07;2.47;;;23.50;1.00;;;;;;5033459;28;20048;-62
2022/09/12 08:43:37;;;;;;;5.15;2.30;;;23.50;1.00;;;;;;5024859;28;20056;-62
2022/09/12 08:46:11;;;;;;;3.88;2.08;;;23.60;1.00;;;;;;5036880;28;20029;-63
2022/09/12 08:48:37;;;;;;;4.63;2.70;;;23.60;1.00;;;;;;5044847;28;20497;-62
2022/09/12 08:51:12;;;;;;;3.40;3.10;;;23.70;1.00;;;;;;5036842;28;20025;-62
2022/09/12 08:53:39;;;;;;;2.80;2.60;;;23.70;1.00;;;;;;5034460;28;20486;-62
2022/09/12 08:56:08;;;;;;;7.30;2.90;;;23.70;1.00;;;;;;5036507;28;20105;-62
2022/09/12 08:58:38;;;;;;;6.68;3.05;;;23.70;1.00;;;;;;5031264;28;20022;-62
2022/09/12 09:01:40;;;;;;;5.28;2.85;;;23.80;1.00;;;;;;5034415;28;20449;-62
2022/09/12 09:04:21;;;;;;;4.75;2.50;;;23.80;1.00;;;;;;5022999;28;20541;-62
2022/09/12 09:07:07;;;;;;;5.10;3.35;;;23.90;1.00;;;;;;5034307;28;20099;-62
2022/09/12 09:09:51;;;;;;;10.65;3.90;;;23.90;1.00;;;;;;5034893;28;20034;-62
2022/09/12 09:12:32;;;;;;;5.70;3.47;;;24.00;1.00;;;;;;5042647;28;20025;-62
2022/09/12 09:15:10;;;;;;;6.72;3.10;;;24.00;1.00;;;;;;5048215;28;20514;-62
2022/09/12 09:17:48;;;;;;;5.28;3.45;;;24.00;1.00;;;;;;5035097;28;20029;-62
2022/09/12 09:20:29;;;;;;;7.93;3.65;;;24.10;1.00;;;;;;5034713;28;20034;-62
2022/09/12 09:23:09;;;;;;;6.53;3.33;;;24.10;1.00;;;;;;5032795;28;20116;-62
2022/09/12 09:25:56;;;;;;;3.45;3.15;;;24.10;1.00;;;;;;5034866;28;20032;-62
2022/09/12 09:28:24;;;;;;;9.23;3.58;;;24.10;1.00;;;;;;5034821;28;20084;-62
2022/09/12 09:30:51;;;;;;;3.42;3.13;;;24.10;1.00;;;;;;5034491;28;20097;-62
2022/09/12 09:33:27;;;;;;;5.28;3.80;;;24.20;1.00;;;;;;5042749;28;20057;-62
2022/09/12 09:35:59;;;;;;;6.03;3.60;;;24.20;1.00;;;;;;5032993;28;20021;-62
2022/09/12 09:38:47;;;;;;;4.22;2.92;;;24.30;1.00;;;;;;5043480;28;20033;-62
2022/09/12 09:42:00;;;;;;;4.70;4.00;;;24.40;1.00;;;;;;5033351;28;20056;-63
2022/09/12 09:44:28;;;;;;;5.43;3.40;;;24.40;1.00;;;;;;5045616;28;20060;-63
2022/09/12 09:46:57;;;;;;;7.03;3.50;;;24.50;1.00;;;;;;5040008;28;20047;-63
2022/09/12 09:49:24;;;;;;;4.57;3.45;;;24.50;1.00;;;;;;5038053;28;20018;-63
2022/09/12 09:51:50;;;;;;;5.00;4.32;;;24.50;1.00;;;;;;5033453;28;20486;-63
2022/09/12 09:54:39;;;;;;;6.53;3.72;;;24.50;1.00;;;;;;5034474;28;20044;-63
2022/09/12 09:57:33;;;;;;;5.60;3.10;;;24.60;1.00;;;;;;5034775;28;20021;-64
2022/09/12 10:00:30;;;;;;;7.13;4.30;;;24.60;1.00;;;;;;5034100;28;20124;-64
2022/09/12 10:03:12;;;;;;;5.80;3.47;;;24.60;1.00;;;;;;5035917;28;20483;-64
2022/09/12 10:05:47;;;;;;;7.80;3.78;;;24.80;1.00;;;;;;5041227;28;20026;-64
2022/09/12 10:08:29;;;;;;;4.50;3.40;;;24.80;1.00;;;;;;5042722;28;20056;-64
2022/09/12 10:11:05;;;;;;;5.95;3.17;;;24.90;1.00;;;;;;5022090;28;20387;-63
2022/09/12 10:14:00;;;;;;;6.97;3.10;;;24.90;1.00;;;;;;5033127;28;20098;-63
2022/09/12 10:16:47;;;;;;;6.47;3.65;;;25.00;1.00;;;;;;5034403;28;20038;-63
2022/09/12 10:19:23;;;;;;;4.45;3.05;;;25.00;1.00;;;;;;5019859;28;20037;-63
2022/09/12 10:21:54;;;;;;;5.68;3.42;;;25.00;1.00;;;;;;5037259;28;20021;-63
2022/09/12 10:24:27;;;;;;;6.93;2.72;;;25.10;1.00;;;;;;5039705;28;20029;-63
2022/09/12 10:27:05;;;;;;;6.22;3.65;;;25.10;1.00;;;;;;5018595;28;20025;-63
2022/09/12 10:29:34;;;;;;;9.45;5.25;;;25.20;1.00;;;;;;5033648;28;20030;-63
2022/09/12 10:32:03;;;;;;;3.88;3.42;;;25.20;1.00;;;;;;5032640;28;20539;-63
2022/09/12 10:34:42;;;;;;;3.75;2.80;;;25.30;1.00;;;;;;5046583;28;20018;-63
2022/09/12 10:37:22;;;;;;;5.50;3.13;;;25.40;1.00;;;;;;5039276;28;20391;-63
2022/09/12 10:39:55;;;;;;;4.72;3.00;;;25.30;1.00;;;;;;5033900;28;20098;-63
2022/09/12 10:42:50;;;;;;;5.57;3.30;;;25.40;1.00;;;;;;5032558;28;20033;-63
2022/09/12 10:45:25;;;;;;;7.40;3.10;;;25.40;1.00;;;;;;5022084;28;20040;-63
2022/09/12 10:47:53;;;;;;;6.75;3.58;;;25.50;1.00;;;;;;5042927;28;20029;-63
2022/09/12 10:50:26;;;;;;;6.03;3.70;;;25.60;1.00;;;;;;5033242;28;20026;-63
2022/09/12 10:52:53;;;;;;;5.47;3.25;;;25.60;1.00;;;;;;5031753;28;20387;-63
2022/09/12 10:55:25;;;;;;;4.43;3.97;;;25.60;1.00;;;;;;5033039;28;20071;-63
2022/09/12 10:58:01;;;;;;;5.72;2.67;;;25.60;1.00;;;;;;5030084;28;20021;-63
2022/09/12 11:00:29;;;;;;;4.75;3.05;;;25.70;1.00;;;;;;5046383;28;20547;-63
2022/09/12 11:03:21;;;;;;;4.72;2.88;;;25.80;1.00;;;;;;5032458;28;20084;-63
2022/09/12 11:05:59;;;;;;;6.00;3.35;;;25.90;1.00;;;;;;5020973;28;20022;-63
2022/09/12 11:09:00;;;;;;;6.03;4.15;;;26.00;1.00;;;;;;5031096;28;20072;-63
2022/09/12 11:11:32;;;;;;;7.45;4.70;;;26.00;1.00;;;;;;5008547;28;20410;-63
2022/09/12 11:14:18;;;;;;;9.30;3.70;;;26.10;1.00;;;;;;5032415;28;20054;-63
2022/09/12 11:17:14;;;;;;;7.35;3.78;;;26.20;1.00;;;;;;5021219;28;20436;-63
2022/09/12 11:20:19;;;;;;;4.95;3.05;;;26.20;1.00;;;;;;5034303;28;20115;-63
2022/09/12 11:23:25;;;;;;;5.55;2.78;;;26.20;1.00;;;;;;5027262;28;20041;-63
2022/09/12 11:26:28;;;;;;;4.20;3.10;;;26.30;1.00;;;;;;5023029;28;20049;-63
2022/09/12 11:29:31;;;;;;;5.10;2.70;;;26.40;1.00;;;;;;5032258;28;20026;-63
2022/09/12 11:32:13;;;;;;;4.45;3.25;;;26.40;1.00;;;;;;5031282;28;20018;-63
2022/09/12 11:34:52;;;;;;;5.72;2.83;;;26.50;1.00;;;;;;5032695;28;20143;-63
2022/09/12 11:37:51;;;;;;;4.40;3.28;;;26.60;1.00;;;;;;5019721;28;20061;-63
2022/09/12 11:40:44;;;;;;;4.70;3.50;;;26.70;1.00;;;;;;5031111;28;20042;-63
2022/09/12 11:43:44;;;;;;;4.18;3.28;;;26.70;1.00;;;;;;5031332;28;20030;-63
2022/09/12 11:46:20;;;;;;;4.57;2.80;;;26.80;1.00;;;;;;5015857;28;20037;-63
2022/09/12 11:48:51;;;;;;;4.97;2.70;;;26.80;1.00;;;;;;5044583;28;20056;-63
2022/09/12 11:51:46;;;;;;;6.97;3.35;;;26.90;1.00;;;;;;5031151;28;20539;-63
2022/09/12 11:54:33;;;;;;;4.78;3.40;;;27.00;1.00;;;;;;5025144;28;20065;-63
2022/09/12 11:57:12;;;;;;;3.72;3.42;;;27.10;1.00;;;;;;5030969;28;20037;-62
2022/09/12 11:59:50;;;;;;;4.22;3.45;;;27.10;1.00;;;;;;5031856;28;20559;-63
2022/09/12 12:02:26;;;;;;;6.43;4.03;;;27.20;1.00;;;;;;5031922;28;20136;-63
2022/09/12 12:05:00;;;;;;;5.18;2.40;;;27.40;1.00;;;;;;5035159;28;20037;-63
2022/09/12 12:07:38;;;;;;;4.72;3.75;;;27.40;1.00;;;;;;5033594;28;20107;-63
2022/09/12 12:10:04;;;;;;;6.50;3.47;;;27.60;1.00;;;;;;5030463;28;20339;-63
2022/09/12 12:12:30;;;;;;;3.80;3.38;;;27.80;1.00;;;;;;5029776;28;20116;-63
2022/09/12 12:14:57;;;;;;;3.50;2.78;;;28.00;1.00;;;;;;5030453;28;20492;-63
2022/09/12 12:17:24;;;;;;;6.35;3.42;;;28.00;1.00;;;;;;5030982;28;20120;-63
2022/09/12 12:20:03;;;;;;;3.42;2.70;;;28.10;1.00;;;;;;5031785;28;20093;-62
2022/09/12 12:22:30;;;;;;;4.50;3.25;;;28.50;1.00;;;;;;5034116;28;20021;-63
2022/09/12 12:25:02;;;;;;;3.15;2.50;;;30.70;1.00;;;;;;5030241;28;20108;-63
2022/09/12 12:27:43;;;;;;;4.38;2.85;;;36.50;1.00;;;;;;5031241;28;20407;-61
2022/09/12 12:30:30;;;;;;;3.08;2.80;;;39.20;1.00;;;;;;5026004;28;20044;-62
2022/09/12 12:33:00;;;;;;;3.88;2.95;;;40.80;1.00;;;;;;5035204;28;20033;-63
2022/09/12 12:35:37;;;;;;;4.43;3.13;;;39.20;1.00;;;;;;5028765;28;20029;-62
2022/09/12 12:38:24;;;;;;;3.53;3.03;;;39.60;1.00;;;;;;5030535;28;20032;-63
2022/09/12 12:40:50;;;;;;;6.80;3.08;;;41.60;1.00;;;;;;5030766;28;20041;-62
2022/09/12 12:43:30;;;;;;;4.60;4.20;;;43.60;99.90;;;;;;5045730;28;20025;-62
2022/09/12 12:46:07;;;;;;;5.38;4.90;;;44.70;99.90;;;;;;5032458;28;20045;-62
2022/09/12 12:48:43;;;;;;;4.80;3.88;;;44.80;99.90;;;;;;5030699;28;20030;-62
2022/09/12 12:51:50;;;;;;;4.55;4.25;;;45.40;99.90;;;;;;5031313;28;20056;-62
2022/09/12 12:54:39;;;;;;;5.57;4.40;;;46.10;99.90;;;;;;5029736;28;20034;-63
2022/09/12 12:57:14;;;;;;;5.55;3.95;;;46.70;99.90;;;;;;5024097;28;20034;-63
2022/09/12 13:00:05;;;;;;;4.28;3.97;;;46.40;99.90;;;;;;5026910;28;20033;-62
2022/09/12 13:02:38;;;;;;;4.18;3.85;;;46.20;99.90;;;;;;5026961;28;20486;-64
2022/09/12 13:05:16;;;;;;;4.47;4.25;;;46.40;99.90;;;;;;5023722;28;20101;-62
2022/09/12 13:07:43;;;;;;;4.65;4.35;;;45.60;99.90;;;;;;5031323;28;20120;-62
2022/09/12 13:10:28;;;;;;;4.47;4.25;;;45.90;99.90;;;;;;5025864;28;20041;-62
2022/09/12 13:12:56;;;;;;;4.93;4.60;;;46.80;99.90;;;;;;5024467;28;20056;-62
2022/09/12 13:15:34;;;;;;;4.45;4.15;;;47.70;99.90;;;;;;5028891;28;20041;-62
2022/09/12 13:18:16;;;;;;;4.72;4.35;;;46.50;99.90;;;;;;5032133;28;20040;-62
2022/09/12 13:21:05;;;;;;;;;;;48.30;99.90;;;;;;5031824;28;20033;-62
2022/09/12 13:23:31;;;;;;;4.28;3.90;;;47.60;99.90;;;;;;5029388;28;19924;-62
2022/09/12 13:25:59;;;;;;;5.13;4.63;;;47.60;99.90;;;;;;5030188;28;20030;-63
2022/09/12 13:28:27;;;;;;;5.00;4.60;;;47.90;99.90;;;;;;5031194;28;20061;-63
2022/09/12 13:31:01;;;;;;;4.55;4.25;;;47.90;99.90;;;;;;5031886;28;20056;-63
2022/09/12 13:33:39;;;;;;;4.95;4.43;;;47.70;99.90;;;;;;5029571;28;20026;-63
2022/09/12 13:36:10;;;;;;;6.68;4.80;;;47.10;99.90;;;;;;5029939;28;20471;-63